Time;durP1;ratioP1;P1;durP2;ratioP2;P2;SDS_P1;SDS_P2;PMS_P1;PMS_P2;Temp;Humidity;BMP_temperature;BMP_pressure;BME280_temperature;BME280_humidity;BME280_pressure;Samples;Min_cycle;Max_cycle;Signal;HPM_P1;HPM_P2
2023/10/23 00:00:11;;;;;;;5.30;2.20;;;;;;;;;;5129183;27;40298;-64
2023/10/23 00:02:39;;;;;;;3.92;2.33;;;;;;;;;;5129865;27;43157;-63
2023/10/23 00:05:07;;;;;;;4.60;2.55;;;;;;;;;;5128811;27;41373;-64
2023/10/23 00:07:37;;;;;;;4.43;2.47;;;;;;;;;;5129215;27;41374;-64
2023/10/23 00:10:05;;;;;;;2.33;2.05;;;;;;;;;;5128867;27;42129;-63
2023/10/23 00:12:33;;;;;;;4.00;2.17;;;;;;;;;;5128704;27;40801;-64
2023/10/23 00:15:01;;;;;;;5.75;2.28;;;;;;;;;;5129824;27;42067;-63
2023/10/23 00:17:29;;;;;;;3.15;2.13;;;;;;;;;;5128677;27;42154;-64
2023/10/23 00:19:57;;;;;;;2.17;1.98;;;;;;;;;;5128673;27;41261;-64
2023/10/23 00:22:25;;;;;;;2.78;1.92;;;;;;;;;;5129456;27;41092;-64
2023/10/23 00:24:55;;;;;;;2.40;1.90;;;;;;;;;;5128859;27;41934;-64
2023/10/23 00:27:22;;;;;;;3.65;2.40;;;;;;;;;;5129076;27;41363;-64
2023/10/23 00:29:52;;;;;;;3.42;2.13;;;;;;;;;;5109397;27;40731;-64
2023/10/23 00:32:20;;;;;;;5.03;2.08;;;;;;;;;;5122924;27;40374;-64
2023/10/23 00:34:48;;;;;;;2.97;1.92;;;;;;;;;;5125996;27;41410;-64
2023/10/23 00:37:16;;;;;;;2.63;1.98;;;;;;;;;;5129890;27;41970;-64
2023/10/23 00:39:44;;;;;;;3.33;2.13;;;;;;;;;;5125140;27;40487;-63
2023/10/23 00:42:13;;;;;;;2.58;2.15;;;;;;;;;;5128211;27;42129;-64
2023/10/23 00:44:41;;;;;;;4.07;2.28;;;;;;;;;;5129504;27;42073;-64
2023/10/23 00:47:09;;;;;;;2.90;2.28;;;;;;;;;;5128091;27;41664;-64
2023/10/23 00:49:38;;;;;;;2.17;1.83;;;;;;;;;;5129170;27;42619;-64
2023/10/23 00:52:06;;;;;;;2.33;2.13;;;;;;;;;;5129512;27;40207;-63
2023/10/23 00:54:35;;;;;;;2.55;2.10;;;;;;;;;;5128766;27;41374;-63
2023/10/23 00:57:06;;;;;;;2.08;1.70;;;;;;;;;;5127788;27;43040;-64
2023/10/23 00:59:35;;;;;;;3.95;2.70;;;;;;;;;;5128962;27;41307;-63
2023/10/23 01:02:04;;;;;;;2.35;1.80;;;;;;;;;;5128798;27;41255;-64
2023/10/23 01:04:32;;;;;;;3.90;1.90;;;;;;;;;;5127248;27;42112;-63
2023/10/23 01:07:00;;;;;;;2.85;2.10;;;;;;;;;;5120917;27;40249;-63
2023/10/23 01:09:28;;;;;;;2.53;1.90;;;;;;;;;;5128460;27;41537;-64
2023/10/23 01:11:56;;;;;;;3.30;1.90;;;;;;;;;;5106284;27;38865;-63
2023/10/23 01:14:24;;;;;;;2.42;1.95;;;;;;;;;;5124774;27;41161;-64
2023/10/23 01:16:53;;;;;;;2.25;1.90;;;;;;;;;;5128774;27;42026;-64
2023/10/23 01:19:21;;;;;;;2.72;1.90;;;;;;;;;;5110345;27;39665;-63
2023/10/23 01:21:49;;;;;;;2.92;1.90;;;;;;;;;;5128358;27;41807;-64
2023/10/23 01:24:17;;;;;;;1.90;1.70;;;;;;;;;;5128871;27;41888;-63
2023/10/23 01:26:46;;;;;;;3.95;2.00;;;;;;;;;;5128470;27;41344;-64
2023/10/23 01:29:14;;;;;;;4.63;2.08;;;;;;;;;;5097730;28;41348;-63
2023/10/23 01:31:42;;;;;;;2.40;1.77;;;;;;;;;;5125520;27;40467;-64
2023/10/23 01:34:10;;;;;;;4.18;2.13;;;;;;;;;;5116043;27;41824;-64
2023/10/23 01:36:38;;;;;;;2.17;1.98;;;;;;;;;;5127685;27;42794;-63
2023/10/23 01:39:06;;;;;;;2.55;1.92;;;;;;;;;;5128526;27;39979;-64
2023/10/23 01:41:34;;;;;;;3.22;1.85;;;;;;;;;;5127818;27;42425;-63
2023/10/23 01:44:04;;;;;;;3.80;2.05;;;;;;;;;;5108798;27;40778;-64
2023/10/23 01:46:32;;;;;;;4.22;2.13;;;;;;;;;;5128325;27;41301;-63
2023/10/23 01:49:01;;;;;;;2.78;2.10;;;;;;;;;;5112099;27;40753;-63
2023/10/23 01:51:28;;;;;;;1.88;1.65;;;;;;;;;;5128285;27;42693;-63
2023/10/23 01:53:56;;;;;;;4.35;2.03;;;;;;;;;;5128083;27;42345;-64
2023/10/23 01:56:25;;;;;;;2.50;1.60;;;;;;;;;;5109115;27;40975;-64
2023/10/23 01:58:53;;;;;;;2.40;1.70;;;;;;;;;;5127890;27;40034;-64
2023/10/23 02:01:22;;;;;;;1.90;1.73;;;;;;;;;;5109352;27;40957;-63
2023/10/23 02:03:51;;;;;;;2.00;1.75;;;;;;;;;;5123310;27;41505;-63
2023/10/23 02:06:19;;;;;;;3.17;1.60;;;;;;;;;;5128409;27;40308;-63
2023/10/23 02:08:47;;;;;;;1.70;1.60;;;;;;;;;;5106789;27;40700;-63
2023/10/23 02:11:15;;;;;;;1.80;1.60;;;;;;;;;;5125163;27;41778;-64
2023/10/23 02:13:43;;;;;;;2.15;1.52;;;;;;;;;;5126958;27;40193;-63
2023/10/23 02:16:11;;;;;;;2.03;1.65;;;;;;;;;;5108980;27;41874;-64
2023/10/23 02:18:40;;;;;;;2.15;1.80;;;;;;;;;;5126744;27;41268;-64
2023/10/23 02:21:08;;;;;;;2.20;1.58;;;;;;;;;;5109113;27;40289;-63
2023/10/23 02:23:36;;;;;;;2.58;1.70;;;;;;;;;;5108618;27;40573;-63
2023/10/23 02:26:20;;;;;;;1.50;1.40;;;;;;;;;;5127272;27;40830;-63
2023/10/23 02:28:48;;;;;;;1.90;1.50;;;;;;;;;;5126915;27;42387;-63
2023/10/23 02:31:16;;;;;;;2.00;1.45;;;;;;;;;;5109448;27;40678;-64
2023/10/23 02:33:45;;;;;;;1.38;1.27;;;;;;;;;;5108140;27;39012;-63
2023/10/23 02:36:15;;;;;;;1.33;1.23;;;;;;;;;;5127917;27;41758;-63
2023/10/23 02:38:43;;;;;;;1.67;1.58;;;;;;;;;;5106345;27;40085;-64
2023/10/23 02:41:11;;;;;;;1.70;1.60;;;;;;;;;;5124880;27;41624;-64
2023/10/23 02:43:39;;;;;;;1.58;1.40;;;;;;;;;;5127391;27;43141;-63
2023/10/23 02:46:07;;;;;;;2.10;1.50;;;;;;;;;;5126621;27;40123;-63
2023/10/23 02:48:36;;;;;;;2.08;1.73;;;;;;;;;;5108411;27;40048;-64
2023/10/23 02:51:05;;;;;;;3.08;1.58;;;;;;;;;;5127640;27;43050;-64
2023/10/23 02:53:33;;;;;;;1.67;1.42;;;;;;;;;;5111161;27;39682;-64
2023/10/23 02:56:02;;;;;;;2.80;1.40;;;;;;;;;;5112472;27;40182;-63
2023/10/23 02:58:32;;;;;;;1.48;1.27;;;;;;;;;;5130946;27;40073;-64
2023/10/23 03:01:01;;;;;;;1.60;1.50;;;;;;;;;;5127418;27;41772;-64
2023/10/23 03:03:29;;;;;;;2.28;1.65;;;;;;;;;;5112545;27;40662;-64
2023/10/23 03:05:57;;;;;;;1.73;1.50;;;;;;;;;;5130845;27;39736;-64
2023/10/23 03:08:26;;;;;;;1.25;1.15;;;;;;;;;;5130980;27;41598;-64
2023/10/23 03:10:54;;;;;;;1.55;1.33;;;;;;;;;;5130746;27;42311;-63
2023/10/23 03:13:23;;;;;;;1.50;1.40;;;;;;;;;;5131182;27;40955;-63
2023/10/23 03:15:50;;;;;;;1.55;1.38;;;;;;;;;;5108444;27;41412;-63
2023/10/23 03:18:18;;;;;;;1.73;1.25;;;;;;;;;;5094427;27;40357;-64
2023/10/23 03:20:46;;;;;;;1.65;1.45;;;;;;;;;;5119459;27;41835;-63
2023/10/23 03:23:14;;;;;;;1.63;1.30;;;;;;;;;;5111436;27;40402;-63
2023/10/23 03:25:44;;;;;;;1.58;1.40;;;;;;;;;;5099612;27;38806;-64
2023/10/23 03:28:12;;;;;;;1.45;1.35;;;;;;;;;;5130103;27;42609;-63
2023/10/23 03:30:40;;;;;;;1.38;1.27;;;;;;;;;;5130143;27;42861;-64
2023/10/23 03:33:08;;;;;;;1.55;1.27;;;;;;;;;;5111174;27;39650;-64
2023/10/23 03:35:41;;;;;;;1.52;1.33;;;;;;;;;;5129683;27;41201;-63
2023/10/23 03:38:09;;;;;;;1.73;1.52;;;;;;;;;;5129827;27;43390;-64
2023/10/23 03:40:37;;;;;;;1.85;1.58;;;;;;;;;;5129972;27;40858;-64
2023/10/23 03:43:07;;;;;;;1.38;1.20;;;;;;;;;;5128838;27;42184;-64
2023/10/23 03:45:36;;;;;;;1.27;1.17;;;;;;;;;;5110861;27;39951;-63
2023/10/23 03:48:04;;;;;;;1.38;1.27;;;;;;;;;;5129785;27;41384;-64
2023/10/23 03:50:32;;;;;;;1.77;1.42;;;;;;;;;;5110196;27;40466;-64
2023/10/23 03:53:00;;;;;;;1.40;1.30;;;;;;;;;;5128991;27;39882;-63
2023/10/23 03:55:28;;;;;;;1.40;1.30;;;;;;;;;;5129107;27;41855;-63
2023/10/23 03:57:56;;;;;;;1.52;1.15;;;;;;;;;;5129102;27;41521;-64
2023/10/23 04:00:26;;;;;;;2.20;1.38;;;;;;;;;;5129724;27;40889;-63
2023/10/23 04:02:54;;;;;;;1.73;1.40;;;;;;;;;;5120666;27;41709;-63
2023/10/23 04:05:21;;;;;;;1.52;1.20;;;;;;;;;;5123931;27;41297;-63
2023/10/23 04:07:49;;;;;;;1.92;1.48;;;;;;;;;;5123277;27;41671;-64
2023/10/23 04:10:17;;;;;;;1.00;0.90;;;;;;;;;;5110061;27;42764;-64
2023/10/23 04:12:45;;;;;;;1.20;1.00;;;;;;;;;;5128610;27;40465;-64
2023/10/23 04:15:13;;;;;;;1.33;1.20;;;;;;;;;;5129931;27;42156;-64
2023/10/23 04:17:42;;;;;;;1.65;1.27;;;;;;;;;;5126811;27;42057;-64
2023/10/23 04:20:11;;;;;;;1.65;1.40;;;;;;;;;;5129338;27;40297;-63
2023/10/23 04:22:39;;;;;;;1.80;1.30;;;;;;;;;;5128865;27;40938;-64
2023/10/23 04:25:07;;;;;;;1.60;1.30;;;;;;;;;;5128887;27;41668;-63
2023/10/23 04:27:35;;;;;;;1.80;1.42;;;;;;;;;;5129265;27;41751;-64
2023/10/23 04:30:04;;;;;;;1.63;1.25;;;;;;;;;;5115338;27;41534;-64
2023/10/23 04:32:32;;;;;;;2.53;1.85;;;;;;;;;;5128489;27;40026;-64
2023/10/23 04:35:02;;;;;;;1.40;1.20;;;;;;;;;;5126677;27;41794;-64
2023/10/23 04:37:30;;;;;;;1.73;1.25;;;;;;;;;;5121512;27;42911;-63
2023/10/23 04:39:58;;;;;;;1.27;1.17;;;;;;;;;;5127551;27;40763;-63
2023/10/23 04:42:26;;;;;;;1.35;1.25;;;;;;;;;;5122380;27;42615;-64
2023/10/23 04:44:54;;;;;;;1.65;1.27;;;;;;;;;;5128576;27;41949;-64
2023/10/23 04:47:22;;;;;;;1.50;1.40;;;;;;;;;;5128822;27;39600;-64
2023/10/23 04:49:50;;;;;;;1.45;1.10;;;;;;;;;;5128677;27;42509;-64
2023/10/23 04:52:19;;;;;;;1.23;1.00;;;;;;;;;;5127697;27;39753;-63
2023/10/23 04:54:47;;;;;;;1.75;1.10;;;;;;;;;;5127542;27;41347;-64
2023/10/23 04:57:15;;;;;;;1.40;1.13;;;;;;;;;;5128331;27;41484;-64
2023/10/23 04:59:43;;;;;;;1.40;1.10;;;;;;;;;;5127600;27;40753;-63
2023/10/23 05:02:11;;;;;;;1.30;1.20;;;;;;;;;;5117241;27;40632;-64
2023/10/23 05:04:39;;;;;;;1.20;1.10;;;;;;;;;;5128616;27;42042;-64
2023/10/23 05:07:07;;;;;;;1.38;1.20;;;;;;;;;;5128565;27;40267;-64
2023/10/23 05:09:36;;;;;;;2.17;1.27;;;;;;;;;;5128769;27;42055;-63
2023/10/23 05:12:05;;;;;;;1.45;1.10;;;;;;;;;;5128078;27;40268;-63
2023/10/23 05:14:33;;;;;;;1.20;1.10;;;;;;;;;;5127169;27;41375;-63
2023/10/23 05:17:01;;;;;;;1.65;1.20;;;;;;;;;;5128066;27;41864;-64
2023/10/23 05:19:29;;;;;;;1.42;1.10;;;;;;;;;;5128638;27;41380;-64
2023/10/23 05:21:57;;;;;;;1.17;1.00;;;;;;;;;;5127334;27;41411;-63
2023/10/23 05:24:25;;;;;;;1.13;1.02;;;;;;;;;;5129157;27;43096;-64
2023/10/23 05:26:56;;;;;;;1.83;1.45;;;;;;;;;;5125239;27;40386;-63
2023/10/23 05:29:24;;;;;;;1.40;1.20;;;;;;;;;;5120567;27;41736;-64
2023/10/23 05:31:52;;;;;;;1.13;1.02;;;;;;;;;;5125913;27;39753;-64
2023/10/23 05:34:20;;;;;;;1.63;1.42;;;;;;;;;;5127950;27;41612;-64
2023/10/23 05:36:47;;;;;;;1.52;1.40;;;;;;;;;;5127595;27;41687;-64
2023/10/23 05:39:16;;;;;;;1.33;1.23;;;;;;;;;;5123202;27;41284;-64
2023/10/23 05:41:44;;;;;;;1.10;1.00;;;;;;;;;;5127030;27;41530;-64
2023/10/23 05:44:13;;;;;;;1.10;1.00;;;;;;;;;;5128292;27;43778;-64
2023/10/23 05:46:41;;;;;;;1.10;1.00;;;;;;;;;;5127275;27;39936;-63
2023/10/23 05:49:09;;;;;;;1.17;1.08;;;;;;;;;;5126637;27;42059;-63
2023/10/23 05:51:37;;;;;;;1.20;1.10;;;;;;;;;;5128554;27;42803;-63
2023/10/23 05:54:05;;;;;;;1.25;1.15;;;;;;;;;;5125639;27;42514;-63
2023/10/23 05:56:33;;;;;;;1.27;1.17;;;;;;;;;;5123469;27;41631;-64
2023/10/23 05:59:01;;;;;;;1.33;1.23;;;;;;;;;;5127606;27;40429;-63
2023/10/23 06:01:30;;;;;;;1.00;0.90;;;;;;;;;;5121151;27;42607;-63
2023/10/23 06:03:58;;;;;;;1.30;1.00;;;;;;;;;;5110656;27;42047;-63
2023/10/23 06:06:26;;;;;;;1.10;1.00;;;;;;;;;;5108867;27;41268;-64
2023/10/23 06:08:54;;;;;;;1.10;1.00;;;;;;;;;;5110498;27;41585;-63
2023/10/23 06:11:23;;;;;;;1.00;1.00;;;;;;;;;;5118035;27;42203;-64
2023/10/23 06:13:51;;;;;;;1.20;1.10;;;;;;;;;;5113856;27;40328;-63
2023/10/23 06:16:19;;;;;;;1.20;1.10;;;;;;;;;;5124380;27;42630;-63
2023/10/23 06:18:48;;;;;;;1.17;1.08;;;;;;;;;;5125553;27;39919;-63
2023/10/23 06:21:16;;;;;;;1.10;0.93;;;;;;;;;;5126111;27;41502;-64
2023/10/23 06:23:44;;;;;;;1.45;1.35;;;;;;;;;;5117798;27;42611;-63
2023/10/23 06:26:12;;;;;;;1.10;1.00;;;;;;;;;;5121016;27;41332;-63
2023/10/23 06:28:40;;;;;;;1.20;1.08;;;;;;;;;;5113111;27;41170;-63
2023/10/23 06:31:08;;;;;;;1.55;1.33;;;;;;;;;;5121104;27;41622;-64
2023/10/23 06:33:38;;;;;;;1.52;1.02;;;;;;;;;;5126870;27;41007;-64
2023/10/23 06:36:09;;;;;;;1.55;1.02;;;;;;;;;;5127398;27;41141;-64
2023/10/23 06:38:37;;;;;;;1.05;0.95;;;;;;;;;;5126733;27;40049;-63
2023/10/23 06:41:05;;;;;;;0.80;0.80;;;;;;;;;;5125168;27;42659;-63
2023/10/23 06:43:33;;;;;;;0.90;0.90;;;;;;;;;;5126774;27;42823;-63
2023/10/23 06:46:01;;;;;;;1.23;1.10;;;;;;;;;;5120003;27;40101;-64
2023/10/23 06:48:30;;;;;;;1.08;1.00;;;;;;;;;;5123432;27;45490;-62
2023/10/23 06:50:58;;;;;;;3.28;1.42;;;;;;;;;;5118666;27;43154;-63
2023/10/23 06:53:28;;;;;;;3.30;1.40;;;;;;;;;;5118705;27;39769;-63
2023/10/23 06:55:56;;;;;;;1.65;1.40;;;;;;;;;;5124189;27;42604;-62
2023/10/23 06:58:24;;;;;;;1.60;1.23;;;;;;;;;;5121051;27;32426;-63
2023/10/23 07:00:52;;;;;;;2.08;1.40;;;;;;;;;;5117914;27;41269;-63
2023/10/23 07:03:20;;;;;;;1.50;1.38;;;;;;;;;;5127566;27;42098;-63
2023/10/23 07:05:48;;;;;;;1.58;1.27;;;;;;;;;;5125784;27;40441;-63
2023/10/23 07:08:16;;;;;;;2.15;1.08;;;;;;;;;;5121470;27;41682;-63
2023/10/23 07:10:46;;;;;;;1.60;1.45;;;;;;;;;;5109701;27;42105;-62
2023/10/23 07:13:14;;;;;;;4.03;1.15;;;;;;;;;;5115794;27;40288;-63
2023/10/23 07:15:50;;;;;;;1.30;1.20;;;;;;;;;;5125936;27;41153;-63
2023/10/23 07:18:18;;;;;;;1.58;1.48;;;;;;;;;;5118677;27;42334;-63
2023/10/23 07:20:53;;;;;;;3.72;1.20;;;;;;;;;;5115612;27;41569;-63
2023/10/23 07:23:22;;;;;;;2.47;1.08;;;;;;;;;;5120189;27;41458;-63
2023/10/23 07:25:58;;;;;;;2.75;1.30;;;;;;;;;;5120209;27;39922;-68
2023/10/23 07:28:26;;;;;;;1.40;1.30;;;;;;;;;;5112521;27;41785;-68
2023/10/23 07:30:54;;;;;;;2.55;1.67;;;;;;;;;;5114596;27;42390;-68
2023/10/23 07:33:22;;;;;;;1.77;1.35;;;;;;;;;;5116335;27;40046;-68
2023/10/23 07:35:59;;;;;;;7.65;1.80;;;;;;;;;;5107011;27;40482;-67
2023/10/23 07:38:27;;;;;;;6.72;1.35;;;;;;;;;;5127600;27;42720;-67
2023/10/23 07:40:57;;;;;;;3.40;1.58;;;;;;;;;;5117853;27;40842;-62
2023/10/23 07:43:25;;;;;;;10.57;1.35;;;;;;;;;;5129803;27;42242;-62
2023/10/23 07:45:53;;;;;;;4.50;1.65;;;;;;;;;;5126321;27;40061;-63
2023/10/23 07:48:35;;;;;;;6.03;2.00;;;;;;;;;;5122897;27;41481;-64
2023/10/23 07:51:03;;;;;;;7.15;1.90;;;;;;;;;;5128119;27;42602;-65
2023/10/23 07:53:32;;;;;;;6.30;1.85;;;;;;;;;;5119598;27;40336;-65
2023/10/23 07:56:01;;;;;;;4.82;2.20;;;;;;;;;;5126432;27;41341;-64
2023/10/23 07:58:29;;;;;;;2.80;1.40;;;;;;;;;;5120440;27;42012;-64
2023/10/23 08:01:04;;;;;;;4.35;1.50;;;;;;;;;;5124328;27;40163;-65
2023/10/23 08:03:33;;;;;;;2.45;1.73;;;;;;;;;;5125383;27;42606;-65
2023/10/23 08:06:03;;;;;;;5.25;1.95;;;;;;;;;;5112850;27;41271;-68
2023/10/23 08:08:32;;;;;;;6.20;2.22;;;;;;;;;;5109683;27;41366;-67
2023/10/23 08:11:02;;;;;;;11.23;3.10;;;;;;;;;;5113846;27;42727;-67
2023/10/23 08:13:30;;;;;;;5.32;1.90;;;;;;;;;;5127645;27;39308;-67
2023/10/23 08:15:58;;;;;;;2.33;1.88;;;;;;;;;;5127814;27;41581;-63
2023/10/23 08:18:28;;;;;;;4.65;2.28;;;;;;;;;;5128406;27;41772;-61
2023/10/23 08:21:08;;;;;;;7.28;1.80;;;;;;;;;;5124995;27;40787;-61
2023/10/23 08:23:36;;;;;;;2.85;1.70;;;;;;;;;;5115382;27;41259;-62
2023/10/23 08:26:05;;;;;;;4.03;2.63;;;;;;;;;;5122131;27;42708;-62
2023/10/23 08:28:34;;;;;;;4.65;2.00;;;;;;;;;;5112793;27;41199;-62
2023/10/23 08:31:22;;;;;;;4.75;2.00;;;;;;;;;;5109101;27;42250;-61
2023/10/23 08:34:05;;;;;;;6.60;2.00;;;;;;;;;;5116152;27;41240;-62
2023/10/23 08:36:34;;;;;;;3.70;2.25;;;;;;;;;;5121230;27;41703;-62
2023/10/23 08:39:02;;;;;;;9.05;2.00;;;;;;;;;;5122116;27;42058;-62
2023/10/23 08:41:34;;;;;;;3.25;1.70;;;;;;;;;;5116688;27;41444;-61
2023/10/23 08:44:01;;;;;;;3.92;1.58;;;;;;;;;;5120682;27;41580;-61
2023/10/23 08:46:31;;;;;;;6.60;1.60;;;;;;;;;;5119489;27;41604;-62
2023/10/23 08:49:00;;;;;;;7.03;1.98;;;;;;;;;;5122282;27;39969;-64
2023/10/23 08:51:28;;;;;;;5.20;1.90;;;;;;;;;;5121827;27;42737;-65
2023/10/23 08:53:56;;;;;;;5.45;1.85;;;;;;;;;;5122134;27;41549;-65
2023/10/23 08:56:40;;;;;;;6.25;2.13;;;;;;;;;;5119341;27;41451;-65
2023/10/23 08:59:09;;;;;;;1.88;1.67;;;;;;;;;;5119960;27;41290;-65
2023/10/23 09:01:37;;;;;;;3.58;1.90;;;;;;;;;;5125454;27;41323;-65
2023/10/23 09:04:06;;;;;;;6.00;2.30;;;;;;;;;;5127329;27;42217;-65
2023/10/23 09:06:36;;;;;;;3.75;2.28;;;;;;;;;;5126468;27;41877;-65
2023/10/23 09:09:05;;;;;;;3.47;2.10;;;;;;;;;;5120535;27;39938;-66
2023/10/23 09:11:43;;;;;;;3.95;2.20;;;;;;;;;;5114701;27;41816;-65
2023/10/23 09:14:11;;;;;;;3.85;2.25;;;;;;;;;;5116274;27;40106;-64
2023/10/23 09:16:39;;;;;;;9.50;2.50;;;;;;;;;;5120662;27;42555;-64
2023/10/23 09:19:07;;;;;;;11.70;2.75;;;;;;;;;;5124227;27;41914;-64
2023/10/23 09:21:35;;;;;;;13.52;3.05;;;;;;;;;;5120449;27;40356;-64
2023/10/23 09:24:06;;;;;;;12.35;2.33;;;;;;;;;;5111729;27;43132;-63
2023/10/23 09:26:34;;;;;;;14.15;3.22;;;;;;;;;;5121461;27;43226;-62
2023/10/23 09:29:03;;;;;;;6.43;3.10;;;;;;;;;;5117198;27;41351;-63
2023/10/23 09:31:31;;;;;;;8.88;3.00;;;;;;;;;;5110950;27;41049;-66
2023/10/23 09:34:00;;;;;;;7.80;2.60;;;;;;;;;;5115333;27;40047;-65
2023/10/23 09:36:28;;;;;;;9.77;3.03;;;;;;;;;;5110128;27;41607;-66
2023/10/23 09:38:56;;;;;;;6.70;3.20;;;;;;;;;;5121103;27;41242;-65
2023/10/23 09:41:24;;;;;;;8.85;2.83;;;;;;;;;;5112949;27;41321;-65
2023/10/23 09:43:53;;;;;;;7.55;3.50;;;;;;;;;;5124425;27;41693;-62
2023/10/23 09:46:22;;;;;;;16.65;3.88;;;;;;;;;;5123783;27;43090;-62
2023/10/23 09:48:50;;;;;;;13.10;2.63;;;;;;;;;;5114410;27;40939;-62
2023/10/23 09:51:21;;;;;;;13.05;3.03;;;;;;;;;;5120825;27;41691;-62
2023/10/23 09:53:50;;;;;;;9.60;3.95;;;;;;;;;;5122644;27;42267;-62
2023/10/23 09:56:20;;;;;;;11.48;3.83;;;;;;;;;;5126218;27;41516;-62
2023/10/23 09:58:50;;;;;;;11.05;2.83;;;;;;;;;;5126610;27;42042;-62
2023/10/23 10:01:18;;;;;;;4.32;3.00;;;;;;;;;;5125977;27;40143;-62
2023/10/23 10:03:48;;;;;;;8.93;3.80;;;;;;;;;;5120777;27;41716;-62
2023/10/23 10:06:17;;;;;;;10.57;5.32;;;;;;;;;;5121682;27;42219;-62
2023/10/23 10:08:47;;;;;;;10.05;3.88;;;;;;;;;;5126102;27;40393;-62
2023/10/23 10:11:15;;;;;;;7.18;4.50;;;;;;;;;;5124888;27;41456;-62
2023/10/23 10:13:43;;;;;;;6.20;3.53;;;;;;;;;;5122069;27;43039;-62
2023/10/23 10:16:11;;;;;;;7.82;3.20;;;;;;;;;;5126470;27;41314;-62
2023/10/23 10:18:42;;;;;;;4.68;2.88;;;;;;;;;;5118488;27;42258;-62
2023/10/23 10:21:13;;;;;;;5.90;3.20;;;;;;;;;;5128153;27;20235;-62
2023/10/23 10:23:41;;;;;;;6.35;4.82;;;;;;;;;;5125426;27;41043;-62
2023/10/23 10:26:09;;;;;;;6.85;3.50;;;;;;;;;;5126725;27;42849;-62
2023/10/23 10:28:37;;;;;;;7.13;5.40;;;;;;;;;;5126333;27;39349;-62
2023/10/23 10:31:05;;;;;;;7.22;5.50;;;;;;;;;;5122006;27;41135;-62
2023/10/23 10:33:38;;;;;;;8.77;4.75;;;;;;;;;;5123250;27;41903;-62
2023/10/23 10:36:28;;;;;;;7.05;4.70;;;;;;;;;;5126445;27;40381;-61
2023/10/23 10:39:16;;;;;;;7.10;5.30;;;;;;;;;;5115120;27;41551;-62
2023/10/23 10:41:45;;;;;;;7.63;3.85;;;;;;;;;;5125809;27;41294;-62
2023/10/23 10:44:13;;;;;;;9.88;6.60;;;;;;;;;;5125536;27;41533;-62
2023/10/23 10:46:41;;;;;;;4.60;3.92;;;;;;;;;;5126543;27;42733;-62
2023/10/23 10:49:10;;;;;;;5.68;3.63;;;;;;;;;;5125803;27;41043;-62
2023/10/23 10:51:39;;;;;;;5.80;4.05;;;;;;;;;;5125193;27;41714;-62
2023/10/23 10:54:08;;;;;;;5.60;4.00;;;;;;;;;;5106175;27;42998;-62
2023/10/23 10:56:36;;;;;;;4.95;3.92;;;;;;;;;;5125221;27;39951;-62
2023/10/23 10:59:04;;;;;;;10.20;5.63;;;;;;;;;;5125018;27;41115;-62
2023/10/23 11:01:32;;;;;;;8.38;5.57;;;;;;;;;;5125806;27;43228;-62
2023/10/23 11:04:01;;;;;;;5.63;4.28;;;;;;;;;;5125964;27;41661;-62
2023/10/23 11:06:29;;;;;;;6.97;4.93;;;;;;;;;;5123285;27;41681;-62
2023/10/23 11:08:59;;;;;;;6.25;4.90;;;;;;;;;;5121838;27;40004;-62
2023/10/23 11:11:27;;;;;;;12.57;5.68;;;;;;;;;;5125878;27;41641;-62
2023/10/23 11:13:55;;;;;;;10.05;6.47;;;;;;;;;;5128744;27;40935;-62
2023/10/23 11:16:23;;;;;;;8.13;5.57;;;;;;;;;;5114862;27;40098;-62
2023/10/23 11:18:52;;;;;;;6.78;4.35;;;;;;;;;;5128414;27;41421;-62
2023/10/23 11:21:23;;;;;;;9.00;4.43;;;;;;;;;;5129498;27;40796;-62
2023/10/23 11:23:54;;;;;;;5.03;4.18;;;;;;;;;;5122541;27;41153;-62
2023/10/23 11:26:23;;;;;;;8.48;4.95;;;;;;;;;;5120704;27;43308;-61
2023/10/23 11:28:51;;;;;;;11.00;5.47;;;;;;;;;;5127589;27;41921;-61
2023/10/23 11:31:21;;;;;;;12.80;6.05;;;;;;;;;;5128405;27;41269;-61
2023/10/23 11:33:51;;;;;;;10.43;5.93;;;;;;;;;;5124783;27;41685;-61
2023/10/23 11:36:20;;;;;;;16.50;5.07;;;;;;;;;;5129077;27;40577;-60
2023/10/23 11:38:48;;;;;;;7.07;5.65;;;;;;;;;;5126742;27;42097;-61
2023/10/23 11:41:16;;;;;;;8.98;4.35;;;;;;;;;;5128887;27;43842;-60
2023/10/23 11:43:45;;;;;;;8.70;5.88;;;;;;;;;;5127372;27;40122;-61
2023/10/23 11:46:13;;;;;;;9.18;5.20;;;;;;;;;;5128818;27;41437;-60
2023/10/23 11:48:42;;;;;;;10.48;5.60;;;;;;;;;;5126769;27;40354;-61
2023/10/23 11:51:09;;;;;;;10.85;5.13;;;;;;;;;;5122775;27;42302;-60
2023/10/23 11:53:37;;;;;;;9.25;5.00;;;;;;;;;;5120617;27;42807;-62
2023/10/23 11:56:06;;;;;;;10.75;5.55;;;;;;;;;;5118278;27;39716;-61
2023/10/23 11:58:34;;;;;;;8.60;5.63;;;;;;;;;;5122406;27;41870;-65
2023/10/23 12:01:05;;;;;;;12.23;5.55;;;;;;;;;;5118181;27;42800;-64
2023/10/23 12:03:33;;;;;;;11.70;5.03;;;;;;;;;;5111083;27;39743;-64
2023/10/23 12:06:01;;;;;;;7.35;5.25;;;;;;;;;;5117739;27;41572;-64
2023/10/23 12:08:29;;;;;;;12.10;4.70;;;;;;;;;;5118836;27;40166;-65
2023/10/23 12:10:56;;;;;;;8.27;4.60;;;;;;;;;;5127143;27;42614;-64
2023/10/23 12:13:24;;;;;;;13.68;5.05;;;;;;;;;;5128209;27;42131;-64
2023/10/23 12:15:53;;;;;;;7.80;5.50;;;;;;;;;;5120716;27;40372;-64
2023/10/23 12:18:23;;;;;;;14.82;4.75;;;;;;;;;;5127824;27;41581;-65
2023/10/23 12:20:54;;;;;;;9.85;5.80;;;;;;;;;;5116258;27;41996;-65
2023/10/23 12:23:26;;;;;;;10.50;6.00;;;;;;;;;;5107719;27;40719;-65
2023/10/23 12:25:54;;;;;;;8.15;5.32;;;;;;;;;;5108618;27;41081;-65
2023/10/23 12:28:22;;;;;;;7.13;4.75;;;;;;;;;;5112568;27;42379;-65
2023/10/23 12:30:50;;;;;;;9.68;4.90;;;;;;;;;;5123409;27;41802;-65
2023/10/23 12:33:18;;;;;;;11.13;5.72;;;;;;;;;;5119754;27;42511;-65
2023/10/23 12:35:56;;;;;;;10.23;4.70;;;;;;;;;;5118453;27;40765;-65
2023/10/23 12:38:24;;;;;;;11.18;5.18;;;;;;;;;;5119250;27;42018;-64
2023/10/23 12:40:52;;;;;;;10.75;5.05;;;;;;;;;;5110260;27;44428;-64
2023/10/23 12:43:20;;;;;;;12.65;5.50;;;;;;;;;;5121273;27;41238;-64
2023/10/23 12:45:48;;;;;;;15.80;5.30;;;;;;;;;;5126165;27;41228;-64
2023/10/23 12:48:16;;;;;;;8.70;4.70;;;;;;;;;;5111836;27;42207;-65
2023/10/23 12:50:44;;;;;;;8.80;4.72;;;;;;;;;;5124163;27;40327;-64
2023/10/23 12:53:14;;;;;;;7.75;4.80;;;;;;;;;;5125835;27;41898;-64
2023/10/23 12:55:43;;;;;;;9.50;5.22;;;;;;;;;;5124918;27;40243;-64
2023/10/23 12:58:11;;;;;;;12.20;5.40;;;;;;;;;;5122680;27;41949;-64
2023/10/23 13:00:39;;;;;;;11.23;5.13;;;;;;;;;;5123489;27;41528;-64
2023/10/23 13:03:07;;;;;;;13.65;5.20;;;;;;;;;;5122840;27;40543;-64
2023/10/23 13:05:35;;;;;;;7.47;4.97;;;;;;;;;;5123755;27;41224;-64
2023/10/23 13:08:04;;;;;;;8.70;5.00;;;;;;;;;;5125646;27;42373;-65
2023/10/23 13:10:33;;;;;;;11.18;4.80;;;;;;;;;;5122158;27;41388;-64
2023/10/23 13:13:01;;;;;;;8.65;4.93;;;;;;;;;;5124870;27;42866;-64
2023/10/23 13:15:30;;;;;;;11.00;4.82;;;;;;;;;;5123253;27;39839;-64
2023/10/23 13:18:00;;;;;;;9.15;5.13;;;;;;;;;;5119805;27;41771;-64
2023/10/23 13:20:28;;;;;;;10.07;4.65;;;;;;;;;;5115367;27;41238;-64
2023/10/23 13:23:16;;;;;;;8.43;4.63;;;;;;;;;;5120068;27;39896;-64
2023/10/23 13:25:45;;;;;;;9.27;4.68;;;;;;;;;;5123341;27;41062;-64
2023/10/23 13:28:33;;;;;;;7.78;4.90;;;;;;;;;;5123113;27;43125;-64
2023/10/23 13:31:01;;;;;;;9.15;4.82;;;;;;;;;;5124116;27;40955;-64
2023/10/23 13:33:29;;;;;;;7.00;4.35;;;;;;;;;;5121666;27;42740;-64
2023/10/23 13:35:59;;;;;;;8.55;4.82;;;;;;;;;;5124080;27;40268;-64
2023/10/23 13:38:27;;;;;;;13.02;4.60;;;;;;;;;;5121079;27;41921;-64
2023/10/23 13:40:56;;;;;;;5.43;4.03;;;;;;;;;;5123643;27;42334;-64
2023/10/23 13:43:25;;;;;;;7.93;4.55;;;;;;;;;;5121009;27;40431;-64
2023/10/23 13:45:53;;;;;;;8.48;4.45;;;;;;;;;;5124141;27;41931;-64
2023/10/23 13:48:21;;;;;;;5.35;4.15;;;;;;;;;;5122477;27;42251;-64
2023/10/23 13:50:49;;;;;;;7.75;4.25;;;;;;;;;;5124069;27;40037;-61
2023/10/23 13:53:18;;;;;;;10.85;4.32;;;;;;;;;;5125588;27;41899;-61
2023/10/23 13:55:46;;;;;;;7.05;4.32;;;;;;;;;;5118633;27;42584;-62
2023/10/23 13:58:15;;;;;;;6.60;4.55;;;;;;;;;;5125087;27;41138;-61
2023/10/23 14:00:44;;;;;;;7.13;4.05;;;;;;;;;;5119968;27;41757;-61
2023/10/23 14:03:12;;;;;;;6.03;4.13;;;;;;;;;;5125364;27;40459;-61
2023/10/23 14:05:40;;;;;;;7.43;4.20;;;;;;;;;;5121244;27;41608;-61
2023/10/23 14:08:08;;;;;;;6.10;3.92;;;;;;;;;;5116335;27;43054;-61
2023/10/23 14:10:37;;;;;;;13.45;4.45;;;;;;;;;;5116985;27;39963;-61
2023/10/23 14:13:05;;;;;;;7.10;4.40;;;;;;;;;;5115125;27;41286;-61
2023/10/23 14:15:34;;;;;;;5.22;3.88;;;;;;;;;;5115850;27;42116;-61
2023/10/23 14:18:02;;;;;;;4.88;4.07;;;;;;;;;;5118254;27;40288;-61
2023/10/23 14:20:30;;;;;;;6.57;4.07;;;;;;;;;;5123649;27;41635;-61
2023/10/23 14:23:00;;;;;;;5.38;4.18;;;;;;;;;;5122210;27;41072;-62
2023/10/23 14:25:28;;;;;;;5.38;3.70;;;;;;;;;;5121959;27;41883;-61
2023/10/23 14:27:56;;;;;;;9.50;4.50;;;;;;;;;;5123570;27;41805;-61
2023/10/23 14:30:24;;;;;;;5.40;4.18;;;;;;;;;;5123302;27;40314;-61
2023/10/23 14:32:53;;;;;;;6.32;3.83;;;;;;;;;;5125143;27;41839;-61
2023/10/23 14:35:21;;;;;;;7.50;4.10;;;;;;;;;;5123253;27;42338;-61
2023/10/23 14:37:49;;;;;;;6.35;4.47;;;;;;;;;;5123121;27;41366;-61
2023/10/23 14:40:17;;;;;;;5.05;3.90;;;;;;;;;;5123459;27;41473;-61
2023/10/23 14:42:45;;;;;;;6.68;3.72;;;;;;;;;;5123367;27;41144;-61
2023/10/23 14:45:13;;;;;;;5.10;3.38;;;;;;;;;;5123434;27;41234;-61
2023/10/23 14:47:41;;;;;;;7.97;4.13;;;;;;;;;;5125976;27;42101;-61
2023/10/23 14:50:10;;;;;;;5.90;3.70;;;;;;;;;;5125575;27;40543;-61